Time;durP1;ratioP1;P1;durP2;ratioP2;P2;SDS_P1;SDS_P2;PMS_P1;PMS_P2;Temp;Humidity;BMP_temperature;BMP_pressure;BME280_temperature;BME280_humidity;BME280_pressure;Samples;Min_cycle;Max_cycle;Signal;HPM_P1;HPM_P2
2023/06/30 00:00:21;;;;;;;11.90;10.70;;;;;;;21.72;73.64;100562.41;4814943;29;20430;-70
2023/06/30 00:02:50;;;;;;;12.70;11.43;;;;;;;21.77;73.55;100565.97;4807154;29;20443;-70
2023/06/30 00:05:22;;;;;;;11.73;10.53;;;;;;;21.83;72.99;100559.31;4807777;29;20435;-73
2023/06/30 00:07:54;;;;;;;12.33;10.60;;;;;;;21.94;72.84;100560.09;4806133;29;20441;-71
2023/06/30 00:10:24;;;;;;;15.33;11.43;;;;;;;21.85;73.61;100562.59;4809501;29;20462;-70
2023/06/30 00:12:54;;;;;;;13.83;11.53;;;;;;;21.72;75.02;100570.66;4806071;29;20483;-70
2023/06/30 00:15:23;;;;;;;14.13;12.27;;;;;;;21.76;75.25;100563.47;4809772;29;20424;-69
2023/06/30 00:17:52;;;;;;;12.83;11.53;;;;;;;21.75;75.97;100565.41;4807130;29;20714;-72
2023/06/30 00:20:23;;;;;;;15.87;14.23;;;;;;;21.65;76.74;100557.19;4811057;29;20476;-71
2023/06/30 00:22:53;;;;;;;14.20;12.80;;;;;;;21.63;77.55;100573.19;4807985;29;20424;-71
2023/06/30 00:25:22;;;;;;;14.43;13.10;;;;;;;21.52;79.34;100558.66;4850976;23;20445;-72
2023/06/30 00:27:51;;;;;;;15.50;12.97;;;;;;;21.61;78.99;100567.97;4816187;29;20506;-73
2023/06/30 00:30:20;;;;;;;18.27;14.40;;;;;;;21.46;80.44;100565.28;4809729;29;20425;-73
2023/06/30 00:32:50;;;;;;;16.50;14.23;;;;;;;21.51;81.12;100567.19;4820639;29;20486;-75
2023/06/30 00:35:24;;;;;;;21.63;15.53;;;;;;;21.33;81.31;100570.56;4811371;29;20461;-75
2023/06/30 00:37:54;;;;;;;17.93;16.13;;;;;;;21.29;82.44;100564.81;4809814;29;20477;-74
2023/06/30 00:40:23;;;;;;;16.90;15.20;;;;;;;21.25;83.50;100563.72;4815709;29;20968;-74
2023/06/30 00:42:52;;;;;;;18.77;16.77;;;;;;;21.16;84.59;100560.72;4808855;29;20852;-73
2023/06/30 00:45:21;;;;;;;18.20;16.40;;;;;;;21.10;85.49;100561.81;4808197;29;20927;-73
2023/06/30 00:47:51;;;;;;;20.53;18.40;;;;;;;21.02;86.92;100559.63;4819714;29;20445;-73
2023/06/30 00:50:21;;;;;;;19.73;17.77;;;;;;;20.85;88.51;100553.63;4825891;29;20464;-74
2023/06/30 00:52:52;;;;;;;26.83;20.13;;;;;;;20.72;90.57;100555.00;4806650;29;20980;-74
2023/06/30 00:55:21;;;;;;;23.97;18.07;;;;;;;20.68;90.62;100553.91;4818294;29;20504;-72
2023/06/30 00:57:50;;;;;;;23.97;19.03;;;;;;;20.62;90.86;100554.22;4829442;29;20918;-73
2023/06/30 01:00:20;;;;;;;26.27;20.73;;;;;;;20.57;91.50;100544.06;4834291;29;20412;-72
2023/06/30 01:03:01;;;;;;;21.20;19.17;;;;;;;20.46;92.98;100552.56;4826992;29;20439;-72
2023/06/30 01:05:40;;;;;;;23.80;20.30;;;;;;;20.32;93.82;100550.38;4813841;29;20418;-74
2023/06/30 01:08:18;;;;;;;23.30;19.10;;;;;;;20.27;94.50;100553.09;4811679;29;20432;-74
2023/06/30 01:10:49;;;;;;;22.90;20.50;;;;;;;20.20;95.14;100548.97;4812178;29;20438;-74
2023/06/30 01:13:19;;;;;;;24.13;20.10;;;;;;;20.17;95.96;100547.59;4817051;29;20444;-74
2023/06/30 01:15:49;;;;;;;25.90;20.03;;;;;;;20.27;95.52;100549.53;4811045;29;20828;-74
2023/06/30 01:18:20;;;;;;;24.67;20.60;;;;;;;20.07;96.46;100544.84;4826205;29;20448;-73
2023/06/30 01:20:52;;;;;;;25.37;22.70;;;;;;;20.04;96.90;100542.66;4813300;29;20773;-74
2023/06/30 01:23:32;;;;;;;28.10;21.93;;;;;;;19.95;98.23;100545.09;4828755;29;20817;-73
2023/06/30 01:26:03;;;;;;;24.10;20.60;;;;;;;19.96;98.44;100538.50;4808152;29;20459;-74
2023/06/30 01:28:33;;;;;;;25.50;22.70;;;;;;;19.90;99.31;100541.50;4830028;29;20516;-74
2023/06/30 01:31:09;;;;;;;25.23;22.00;;;;;;;19.84;100.00;100531.63;4807587;29;20463;-74
2023/06/30 01:33:42;;;;;;;27.60;22.83;;;;;;;19.69;100.00;100534.34;4826123;29;20470;-72
2023/06/30 01:36:11;;;;;;;25.60;23.03;;;;;;;19.71;100.00;100534.88;4808564;29;20474;-73
2023/06/30 01:38:43;;;;;;;26.03;23.23;;;;;;;19.64;100.00;100531.59;4812771;29;20422;-74
2023/06/30 01:41:13;;;;;;;30.40;24.17;;;;;;;19.63;100.00;100524.44;4810498;29;20511;-74
2023/06/30 01:43:43;;;;;;;27.40;24.17;;;;;;;19.62;100.00;100531.00;4817755;29;20924;-76
2023/06/30 01:46:15;;;;;;;24.53;21.90;;;;;;;19.67;100.00;100534.59;4811510;29;20939;-73
2023/06/30 01:48:44;;;;;;;23.77;20.47;;;;;;;19.49;100.00;100533.19;4813147;29;20437;-73
2023/06/30 01:51:14;;;;;;;23.23;20.30;;;;;;;19.37;100.00;100532.56;4819474;29;20420;-72
2023/06/30 01:53:46;;;;;;;25.80;22.07;;;;;;;19.39;100.00;100537.78;4815259;29;20446;-74
2023/06/30 01:56:15;;;;;;;25.20;22.47;;;;;;;19.32;100.00;100537.19;4817866;29;20867;-74
2023/06/30 01:58:44;;;;;;;25.00;20.63;;;;;;;19.22;100.00;100529.75;4827455;29;20478;-75
2023/06/30 02:01:14;;;;;;;27.37;21.73;;;;;;;19.29;100.00;100530.34;4812099;29;20909;-73
2023/06/30 02:03:43;;;;;;;23.80;21.23;;;;;;;19.32;100.00;100524.31;4819265;29;20551;-74
2023/06/30 02:06:12;;;;;;;25.07;22.37;;;;;;;19.28;100.00;100527.84;4825969;29;20477;-75
2023/06/30 02:08:42;;;;;;;29.87;25.37;;;;;;;19.25;100.00;100518.25;4809147;29;20783;-75
2023/06/30 02:11:13;;;;;;;24.47;22.07;;;;;;;19.18;100.00;100522.31;4809424;29;20799;-74
2023/06/30 02:13:42;;;;;;;27.70;22.43;;;;;;;19.08;100.00;100523.09;4805639;29;20819;-73
2023/06/30 02:16:11;;;;;;;29.27;24.30;;;;;;;18.98;100.00;100518.41;4823966;29;20897;-75
2023/06/30 02:18:41;;;;;;;27.70;23.57;;;;;;;18.99;100.00;100519.22;4821703;29;20541;-72
2023/06/30 02:21:10;;;;;;;25.10;22.30;;;;;;;19.02;100.00;100514.06;4809883;29;20425;-74
2023/06/30 02:23:39;;;;;;;28.53;24.37;;;;;;;18.99;100.00;100524.72;4813076;29;20529;-74
2023/06/30 02:26:09;;;;;;;26.90;24.30;;;;;;;19.05;100.00;100523.66;4826968;29;20462;-73
2023/06/30 02:28:39;;;;;;;28.57;25.50;;;;;;;19.13;100.00;100520.38;4809225;29;20459;-75
2023/06/30 02:31:09;;;;;;;27.47;24.57;;;;;;;19.03;100.00;100521.16;4813830;29;20421;-75
2023/06/30 02:33:38;;;;;;;28.60;23.50;;;;;;;19.10;100.00;100515.44;4816597;29;20502;-74
2023/06/30 02:36:08;;;;;;;27.97;24.40;;;;;;;19.16;100.00;100525.34;4811746;29;20438;-76
2023/06/30 02:38:37;;;;;;;27.43;24.50;;;;;;;19.22;100.00;100515.22;4813334;29;20409;-75
2023/06/30 02:41:06;;;;;;;26.30;23.50;;;;;;;19.19;100.00;100522.06;4802322;29;20533;-75
2023/06/30 02:43:35;;;;;;;28.50;24.37;;;;;;;19.25;100.00;100521.00;4823989;29;20481;-74
2023/06/30 02:46:06;;;;;;;27.73;23.70;;;;;;;19.17;100.00;100520.69;4814421;29;20442;-75
2023/06/30 02:48:35;;;;;;;31.53;24.67;;;;;;;19.12;100.00;100513.28;4808400;29;20439;-73
2023/06/30 02:51:04;;;;;;;33.13;25.80;;;;;;;19.02;100.00;100499.50;4809993;29;20497;-75
2023/06/30 02:53:34;;;;;;;31.83;25.50;;;;;;;19.07;100.00;100483.88;4806096;29;20446;-74
2023/06/30 02:56:04;;;;;;;28.77;25.67;;;;;;;19.05;100.00;100488.00;4824422;29;20822;-72
2023/06/30 02:58:39;;;;;;;28.10;23.90;;;;;;;19.09;100.00;100502.81;4817783;29;20506;-73
2023/06/30 03:01:10;;;;;;;31.00;25.20;;;;;;;19.22;100.00;100502.31;4820300;29;20436;-75
2023/06/30 03:03:42;;;;;;;27.67;24.60;;;;;;;19.14;100.00;100494.63;4815711;29;20445;-71
2023/06/30 03:06:14;;;;;;;29.93;23.77;;;;;;;19.00;100.00;100487.97;4819277;29;20440;-75
2023/06/30 03:08:44;;;;;;;26.77;23.87;;;;;;;19.06;100.00;100492.41;4829329;29;20512;-74
2023/06/30 03:11:18;;;;;;;28.13;24.80;;;;;;;19.15;100.00;100507.25;4816719;29;20443;-74
2023/06/30 03:13:48;;;;;;;25.30;22.73;;;;;;;19.17;100.00;100496.00;4823935;29;20463;-74
2023/06/30 03:16:19;;;;;;;26.87;23.70;;;;;;;19.01;100.00;100500.59;4821733;29;20822;-75
2023/06/30 03:18:48;;;;;;;30.20;24.80;;;;;;;18.99;100.00;100492.63;4823581;29;20426;-75
2023/06/30 03:21:17;;;;;;;32.70;24.27;;;;;;;19.03;100.00;100499.22;4806904;29;20941;-76
2023/06/30 03:23:48;;;;;;;30.30;23.80;;;;;;;19.09;100.00;100489.09;4823857;29;20417;-74
2023/06/30 03:26:17;;;;;;;29.47;25.70;;;;;;;19.13;100.00;100481.16;4820400;29;20432;-75
2023/06/30 03:28:46;;;;;;;29.57;24.97;;;;;;;19.14;100.00;100480.91;4809677;29;20409;-75
2023/06/30 03:31:18;;;;;;;32.30;24.47;;;;;;;19.13;100.00;100476.50;4814679;29;20428;-76
2023/06/30 03:33:50;;;;;;;28.47;25.47;;;;;;;19.12;100.00;100474.88;4832509;29;20456;-74
2023/06/30 03:36:19;;;;;;;29.40;24.10;;;;;;;19.24;100.00;100477.38;4811564;29;20405;-75
2023/06/30 03:38:48;;;;;;;26.47;23.30;;;;;;;19.40;100.00;100479.06;4810073;29;20413;-76
2023/06/30 03:41:17;;;;;;;30.43;24.30;;;;;;;19.40;100.00;100487.31;4826940;29;20435;-75
2023/06/30 03:43:46;;;;;;;26.67;23.00;;;;;;;19.41;100.00;100484.28;4814613;29;20510;-75
2023/06/30 03:46:16;;;;;;;27.40;23.40;;;;;;;19.30;100.00;100482.63;4829120;29;20416;-75
2023/06/30 03:48:46;;;;;;;26.33;23.30;;;;;;;19.40;100.00;100482.66;4818578;29;21000;-74
2023/06/30 03:51:16;;;;;;;33.63;24.97;;;;;;;19.30;100.00;100482.63;4846297;29;20404;-75
2023/06/30 03:53:50;;;;;;;24.73;22.10;;;;;;;19.43;100.00;100487.59;4841646;29;20452;-73
2023/06/30 03:56:19;;;;;;;29.17;22.97;;;;;;;19.48;100.00;100484.88;4818822;29;20505;-75
2023/06/30 03:58:49;;;;;;;28.30;22.83;;;;;;;19.33;100.00;100482.06;4823994;29;20667;-75
2023/06/30 04:01:18;;;;;;;27.30;22.93;;;;;;;19.41;100.00;100481.53;4815937;29;20805;-74
2023/06/30 04:03:49;;;;;;;26.63;23.17;;;;;;;19.40;100.00;100479.06;4811413;29;20860;-75
2023/06/30 04:06:20;;;;;;;24.27;21.70;;;;;;;19.47;100.00;100483.22;4816138;29;20441;-73
2023/06/30 04:08:49;;;;;;;27.00;22.83;;;;;;;19.50;100.00;100473.66;4815881;29;20439;-73
2023/06/30 04:11:18;;;;;;;27.80;23.13;;;;;;;19.55;100.00;100470.91;4823237;29;20428;-75
2023/06/30 04:13:50;;;;;;;26.80;23.30;;;;;;;19.68;100.00;100478.63;4819266;29;20515;-74
2023/06/30 04:16:21;;;;;;;28.90;23.03;;;;;;;19.92;100.00;100478.91;4817149;29;20433;-74
2023/06/30 04:18:52;;;;;;;26.87;23.00;;;;;;;19.89;100.00;100476.72;4807822;29;20418;-74
2023/06/30 04:21:23;;;;;;;26.27;23.53;;;;;;;19.94;100.00;100476.72;4815825;29;20410;-74
2023/06/30 04:23:52;;;;;;;30.00;24.80;;;;;;;20.24;100.00;100493.19;4813650;29;20413;-74
2023/06/30 04:26:22;;;;;;;29.73;24.50;;;;;;;20.28;100.00;100483.28;4811006;29;20517;-74
2023/06/30 04:28:51;;;;;;;27.00;24.20;;;;;;;20.34;100.00;100487.72;4812813;29;20474;-74
2023/06/30 04:31:20;;;;;;;33.60;24.80;;;;;;;20.62;99.29;100488.25;4817284;29;20474;-75
2023/06/30 04:33:49;;;;;;;27.50;24.60;;;;;;;20.83;96.79;100478.81;4805814;29;20788;-75
2023/06/30 04:36:20;;;;;;;28.93;25.90;;;;;;;20.86;97.00;100471.94;4818139;29;20938;-75
2023/06/30 04:38:51;;;;;;;32.03;22.93;;;;;;;21.07;96.52;100465.25;4815068;29;20912;-73
2023/06/30 04:41:20;;;;;;;27.73;24.10;;;;;;;21.21;94.50;100467.13;4818113;29;20440;-73
2023/06/30 04:43:49;;;;;;;28.13;24.40;;;;;;;21.48;91.75;100463.97;4814645;29;20409;-74
2023/06/30 04:46:18;;;;;;;24.83;22.17;;;;;;;21.93;86.89;100459.25;4802947;29;20826;-73
2023/06/30 04:48:48;;;;;;;22.77;20.37;;;;;;;23.10;80.32;100458.91;4822259;29;20510;-73
2023/06/30 04:51:18;;;;;;;26.00;22.37;;;;;;;23.74;74.97;100461.91;4828382;29;20442;-74
2023/06/30 04:53:47;;;;;;;25.33;22.60;;;;;;;23.97;73.77;100453.78;4822067;29;20831;-71
2023/06/30 04:56:19;;;;;;;24.13;21.57;;;;;;;24.97;70.13;100455.88;4813313;29;20417;-73
2023/06/30 04:58:51;;;;;;;23.50;20.90;;;;;;;25.21;69.02;100472.25;4819755;29;20418;-74
2023/06/30 05:01:20;;;;;;;24.50;21.90;;;;;;;24.91;69.81;100474.53;4814448;29;20777;-74
2023/06/30 05:03:50;;;;;;;23.47;20.87;;;;;;;24.52;70.37;100463.09;4813827;29;20409;-74
2023/06/30 05:06:20;;;;;;;26.80;23.57;;;;;;;23.56;73.10;100457.22;4815156;29;20450;-74
2023/06/30 05:08:50;;;;;;;25.57;22.80;;;;;;;23.35;75.56;100453.06;4817656;29;20547;-74
2023/06/30 05:11:21;;;;;;;25.10;22.00;;;;;;;23.56;75.74;100454.44;4818580;29;20419;-74
2023/06/30 05:13:50;;;;;;;24.30;21.80;;;;;;;24.35;73.02;100455.38;4818749;29;20494;-73
2023/06/30 05:16:20;;;;;;;24.00;21.50;;;;;;;24.97;70.35;100455.88;4812740;29;20453;-74
2023/06/30 05:18:49;;;;;;;24.87;22.07;;;;;;;24.65;69.32;100454.81;4817515;29;20496;-74
2023/06/30 05:21:18;;;;;;;25.73;22.10;;;;;;;24.75;68.76;100437.19;4810723;29;20421;-74
2023/06/30 05:23:47;;;;;;;23.30;20.80;;;;;;;25.30;67.53;100426.91;4815132;29;20431;-72
2023/06/30 05:26:17;;;;;;;24.53;19.50;;;;;;;25.86;63.92;100442.22;4808324;29;20828;-74
2023/06/30 05:28:47;;;;;;;26.80;23.63;;;;;;;26.01;64.37;100441.03;4815242;29;20947;-73
2023/06/30 05:31:32;;;;;;;24.33;20.17;;;;;;;26.49;62.08;100449.50;4815542;29;20498;-73
2023/06/30 05:34:02;;;;;;;24.63;19.80;;;;;;;26.85;61.45;100452.94;4816447;29;20473;-73
2023/06/30 05:36:31;;;;;;;21.03;18.83;;;;;;;26.65;59.88;100457.09;4810329;29;20535;-72
2023/06/30 05:39:02;;;;;;;20.47;18.30;;;;;;;27.11;58.46;100453.06;4811903;29;20435;-73
2023/06/30 05:41:34;;;;;;;22.63;20.17;;;;;;;26.45;61.16;100440.19;4812385;29;20445;-73
2023/06/30 05:44:06;;;;;;;21.53;19.33;;;;;;;25.98;62.24;100450.00;4814085;29;20522;-73
2023/06/30 05:46:37;;;;;;;21.93;19.67;;;;;;;25.09;65.11;100447.84;4813448;29;20459;-74
2023/06/30 05:49:07;;;;;;;23.43;19.07;;;;;;;24.61;65.45;100448.25;4812501;29;20435;-73
2023/06/30 05:51:37;;;;;;;22.70;19.00;;;;;;;24.61;66.52;100447.41;4814409;29;20450;-74
2023/06/30 05:54:06;;;;;;;22.40;20.10;;;;;;;24.47;68.12;100450.19;4817672;29;20524;-73
2023/06/30 05:56:35;;;;;;;23.53;20.17;;;;;;;24.18;70.03;100444.06;4814948;29;20462;-74
2023/06/30 05:59:10;;;;;;;23.00;20.40;;;;;;;24.29;68.99;100456.59;4812230;29;20569;-73
2023/06/30 06:01:39;;;;;;;21.90;19.60;;;;;;;24.19;69.00;100445.72;4814282;29;20422;-74
2023/06/30 06:04:11;;;;;;;21.23;18.63;;;;;;;24.22;68.78;100456.97;4812703;29;20441;-73
2023/06/30 06:06:41;;;;;;;21.10;18.80;;;;;;;24.58;68.23;100453.56;4813193;29;20462;-72
2023/06/30 06:09:10;;;;;;;23.30;19.80;;;;;;;24.76;67.15;100455.44;4802755;29;20447;-73
2023/06/30 06:11:39;;;;;;;22.73;20.20;;;;;;;24.68;64.93;100454.22;4815107;29;20424;-72
2023/06/30 06:14:10;;;;;;;21.50;19.00;;;;;;;24.53;66.55;100460.03;4806914;29;20744;-73
2023/06/30 06:16:39;;;;;;;24.60;20.13;;;;;;;24.50;66.56;100468.09;4816401;29;20965;-73
2023/06/30 06:19:09;;;;;;;21.93;19.70;;;;;;;24.35;68.10;100455.38;4807060;29;20439;-74
2023/06/30 06:21:38;;;;;;;20.37;18.27;;;;;;;24.33;67.78;100465.91;4817065;29;20453;-74
2023/06/30 06:24:08;;;;;;;22.20;19.83;;;;;;;24.19;67.90;100459.53;4810781;29;20417;-73
2023/06/30 06:26:37;;;;;;;25.13;19.50;;;;;;;24.30;68.16;100461.00;4812940;29;20502;-74
2023/06/30 06:29:06;;;;;;;21.57;19.17;;;;;;;24.32;67.87;100455.97;4805980;29;20475;-74
2023/06/30 06:31:36;;;;;;;21.27;18.13;;;;;;;24.45;67.56;100470.94;4806964;29;20454;-72
2023/06/30 06:34:05;;;;;;;21.47;19.30;;;;;;;24.38;65.22;100471.38;4807062;29;20553;-74
2023/06/30 06:36:34;;;;;;;24.97;19.07;;;;;;;23.93;67.20;100463.81;4809323;29;20462;-72
2023/06/30 06:39:04;;;;;;;26.50;19.80;;;;;;;23.75;66.24;100458.03;4810875;29;20440;-73
2023/06/30 06:41:33;;;;;;;19.50;17.37;;;;;;;23.50;67.56;100458.41;4806896;29;20486;-72
2023/06/30 06:44:02;;;;;;;22.23;19.70;;;;;;;23.74;67.04;100467.41;4821259;29;20461;-72
2023/06/30 06:46:31;;;;;;;21.17;19.07;;;;;;;23.94;67.05;100466.28;4832201;29;20958;-74
2023/06/30 06:49:02;;;;;;;20.50;18.40;;;;;;;23.97;67.41;100464.84;4822646;29;20438;-72
2023/06/30 06:51:33;;;;;;;20.37;18.17;;;;;;;23.77;67.67;100475.09;4815152;29;20416;-74
2023/06/30 06:54:02;;;;;;;22.47;19.50;;;;;;;23.91;67.45;100483.47;4813784;29;20425;-72
2023/06/30 06:56:31;;;;;;;21.17;18.80;;;;;;;23.35;67.60;100481.50;4807141;29;20482;-73
2023/06/30 06:59:00;;;;;;;22.60;20.20;;;;;;;23.07;68.09;100489.88;4811311;29;20409;-72
2023/06/30 07:01:30;;;;;;;22.73;20.30;;;;;;;22.79;70.58;100486.06;4805990;29;20414;-72
2023/06/30 07:04:01;;;;;;;22.87;20.37;;;;;;;22.67;71.06;100480.91;4805812;29;20413;-74
2023/06/30 07:06:30;;;;;;;26.77;19.47;;;;;;;22.61;71.28;100487.59;4815278;29;20845;-74
2023/06/30 07:08:59;;;;;;;21.87;19.43;;;;;;;22.53;70.39;100479.94;4812024;29;20475;-75
2023/06/30 07:11:29;;;;;;;25.03;20.43;;;;;;;22.50;70.70;100480.53;4806066;29;20485;-75
2023/06/30 07:13:58;;;;;;;20.90;18.67;;;;;;;22.10;70.35;100481.72;4822032;29;20865;-76
2023/06/30 07:16:27;;;;;;;19.57;17.50;;;;;;;21.80;71.10;100491.03;4807150;29;20494;-73
2023/06/30 07:18:56;;;;;;;23.60;18.90;;;;;;;21.72;73.02;100490.81;4812524;29;20425;-74
2023/06/30 07:21:27;;;;;;;23.67;19.53;;;;;;;21.64;73.83;100486.72;4807040;29;20437;-74
2023/06/30 07:23:56;;;;;;;21.83;19.27;;;;;;;21.75;74.41;100487.47;4807953;29;20984;-74
2023/06/30 07:26:26;;;;;;;20.40;17.87;;;;;;;21.86;75.55;100498.16;4810040;29;20452;-73
2023/06/30 07:28:55;;;;;;;22.27;18.27;;;;;;;21.79;76.03;100496.81;4807305;29;20422;-73
2023/06/30 07:31:24;;;;;;;21.60;19.27;;;;;;;21.85;76.17;100502.00;4824588;29;20451;-75
2023/06/30 07:33:53;;;;;;;19.63;17.53;;;;;;;21.75;76.91;100490.22;4813126;29;20438;-74
2023/06/30 07:36:22;;;;;;;20.97;18.60;;;;;;;21.63;78.13;100488.66;4811052;29;20906;-74
2023/06/30 07:38:53;;;;;;;22.50;20.10;;;;;;;21.59;79.56;100475.75;4812470;29;20417;-74
2023/06/30 07:41:22;;;;;;;23.00;18.60;;;;;;;21.53;79.33;100468.63;4808786;29;20442;-73
2023/06/30 07:43:51;;;;;;;29.40;18.90;;;;;;;21.54;80.20;100476.59;4812070;29;20462;-73
2023/06/30 07:46:20;;;;;;;22.90;19.40;;;;;;;21.71;80.08;100481.72;4810648;29;20993;-75
2023/06/30 07:48:50;;;;;;;22.83;18.93;;;;;;;21.87;80.30;100476.94;4821483;29;20417;-75
2023/06/30 07:51:19;;;;;;;19.90;17.90;;;;;;;22.17;77.93;100481.41;4810565;29;20441;-74
2023/06/30 07:53:48;;;;;;;23.23;18.13;;;;;;;22.09;76.05;100480.91;4808541;29;20420;-74
2023/06/30 07:56:19;;;;;;;24.03;20.30;;;;;;;22.04;76.65;100480.94;4811483;29;20443;-75
2023/06/30 07:58:48;;;;;;;21.87;19.13;;;;;;;22.15;76.14;100478.09;4813337;29;20416;-73
2023/06/30 08:01:17;;;;;;;21.33;19.03;;;;;;;22.03;77.20;100475.72;4813895;29;20420;-74
2023/06/30 08:03:48;;;;;;;27.40;19.30;;;;;;;21.67;79.02;100481.47;4812895;29;20420;-73
2023/06/30 08:06:18;;;;;;;29.50;22.30;;;;;;;21.67;79.51;100475.16;4814918;29;20415;-78
2023/06/30 08:08:47;;;;;;;21.60;19.30;;;;;;;21.70;79.64;100477.31;4812973;29;20693;-78
2023/06/30 08:11:18;;;;;;;23.53;20.03;;;;;;;21.76;79.31;100484.44;4810127;29;20416;-76
2023/06/30 08:13:47;;;;;;;23.30;18.53;;;;;;;22.03;77.59;100486.75;4808633;29;20799;-75
2023/06/30 08:16:16;;;;;;;25.00;18.90;;;;;;;22.14;76.80;100493.00;4811453;29;20441;-74
2023/06/30 08:18:51;;;;;;;22.20;19.20;;;;;;;22.12;77.59;100489.72;4806887;29;20622;-74
2023/06/30 08:21:20;;;;;;;24.60;21.87;;;;;;;22.32;77.01;100484.00;4812069;29;20438;-74
2023/06/30 08:23:50;;;;;;;24.53;18.77;;;;;;;22.45;75.80;100483.34;4808878;29;21012;-75
2023/06/30 08:26:20;;;;;;;23.73;19.10;;;;;;;22.52;76.75;100478.31;4804914;29;20429;-75
2023/06/30 08:28:50;;;;;;;21.60;19.30;;;;;;;23.17;73.70;100490.56;4805274;29;20539;-76
2023/06/30 08:31:19;;;;;;;22.33;19.17;;;;;;;23.20;72.68;100489.13;4804921;29;20439;-76
2023/06/30 08:33:51;;;;;;;23.07;20.23;;;;;;;23.36;71.90;100471.28;4808779;29;20414;-74
2023/06/30 08:36:20;;;;;;;21.97;19.63;;;;;;;23.79;70.40;100478.41;4826161;29;20518;-74
2023/06/30 08:38:50;;;;;;;22.83;20.33;;;;;;;24.22;67.04;100478.28;4809500;29;20435;-73
2023/06/30 08:41:20;;;;;;;24.20;20.90;;;;;;;24.09;66.98;100490.09;4829114;29;20486;-74
2023/06/30 08:43:52;;;;;;;21.63;19.33;;;;;;;23.97;68.09;100485.00;4806340;29;20414;-73
2023/06/30 08:46:26;;;;;;;27.13;21.03;;;;;;;23.83;69.06;100482.19;4812623;29;20977;-74
2023/06/30 08:48:56;;;;;;;23.90;21.00;;;;;;;24.28;68.78;100484.53;4808545;29;20480;-74
2023/06/30 08:51:25;;;;;;;21.30;19.13;;;;;;;24.52;66.22;100485.22;4816675;29;20529;-75
2023/06/30 08:53:56;;;;;;;25.57;20.67;;;;;;;24.43;65.90;100493.41;4811090;29;20495;-73
2023/06/30 08:56:28;;;;;;;24.73;21.40;;;;;;;24.53;65.52;100493.22;4808233;29;20472;-74
2023/06/30 08:58:57;;;;;;;23.67;21.03;;;;;;;24.49;65.36;100483.06;4812727;29;20431;-73
2023/06/30 09:01:26;;;;;;;21.90;19.53;;;;;;;24.66;66.03;100491.59;4816982;29;20420;-74
2023/06/30 09:03:56;;;;;;;22.87;20.43;;;;;;;24.72;65.45;100492.31;4810840;29;20446;-74
2023/06/30 09:06:27;;;;;;;24.30;21.70;;;;;;;24.50;66.58;100495.75;4814703;29;20883;-75
2023/06/30 09:09:03;;;;;;;21.73;19.53;;;;;;;24.54;65.67;100488.50;4811393;29;20551;-74
2023/06/30 09:11:36;;;;;;;24.70;22.10;;;;;;;23.90;68.27;100500.34;4815760;29;20438;-73
2023/06/30 09:14:08;;;;;;;27.33;22.63;;;;;;;23.71;69.89;100494.84;4807031;29;20428;-74
2023/06/30 09:16:37;;;;;;;27.93;23.00;;;;;;;23.59;70.63;100491.69;4808709;29;20476;-75
2023/06/30 09:19:07;;;;;;;24.90;22.40;;;;;;;23.34;72.10;100490.88;4808490;29;20947;-74
2023/06/30 09:21:37;;;;;;;32.10;22.60;;;;;;;22.99;74.47;100493.28;4810022;29;20511;-74
2023/06/30 09:24:06;;;;;;;29.37;24.10;;;;;;;22.88;75.25;100493.41;4815759;29;20438;-75
2023/06/30 09:26:37;;;;;;;27.00;22.70;;;;;;;22.93;75.78;100485.06;4814723;29;20508;-74
2023/06/30 09:29:12;;;;;;;27.63;24.47;;;;;;;23.23;74.58;100481.13;4815210;29;20409;-74
2023/06/30 09:31:41;;;;;;;35.03;26.03;;;;;;;23.52;73.63;100480.19;4813011;29;20437;-73
2023/06/30 09:34:12;;;;;;;29.20;24.90;;;;;;;23.54;74.54;100476.00;4809433;29;20417;-75
2023/06/30 09:36:59;;;;;;;32.07;25.40;;;;;;;23.24;73.88;100479.16;4809780;29;21078;-73
2023/06/30 09:39:28;;;;;;;31.70;27.80;;;;;;;23.43;73.89;100474.47;4803922;29;20941;-71
2023/06/30 09:41:59;;;;;;;27.33;24.33;;;;;;;23.25;73.93;100469.75;4806572;29;20417;-76
2023/06/30 09:44:28;;;;;;;28.03;25.10;;;;;;;23.28;74.63;100480.22;4811868;29;20472;-75
2023/06/30 09:46:57;;;;;;;30.30;25.40;;;;;;;22.99;76.62;100471.22;4809094;29;20461;-73
2023/06/30 09:49:30;;;;;;;30.63;26.70;;;;;;;23.00;77.77;100479.19;4810608;29;20530;-73
2023/06/30 09:52:01;;;;;;;34.20;28.57;;;;;;;22.74;80.99;100484.19;4806014;29;20449;-74
2023/06/30 09:54:33;;;;;;;31.27;26.93;;;;;;;22.34;84.24;100487.31;4833124;29;20417;-74
2023/06/30 09:57:07;;;;;;;32.63;29.17;;;;;;;22.03;86.59;100487.56;4814343;29;20870;-73
2023/06/30 09:59:37;;;;;;;35.20;29.87;;;;;;;21.18;90.10;100486.97;4805125;29;20460;-73
2023/06/30 10:02:06;;;;;;;33.23;29.67;;;;;;;20.54;96.27;100486.03;4809429;29;20442;-74
2023/06/30 10:04:36;;;;;;;40.93;32.27;;;;;;;20.23;100.00;100496.22;4809585;29;20438;-76
2023/06/30 10:07:07;;;;;;;38.90;30.27;;;;;;;20.19;100.00;100484.94;4807270;29;21004;-71
2023/06/30 10:09:39;;;;;;;43.77;35.53;;;;;;;20.30;100.00;100497.63;4807617;29;20779;-75
2023/06/30 10:12:10;;;;;;;38.30;32.57;;;;;;;20.49;100.00;100483.28;4813210;29;20405;-75
2023/06/30 10:14:44;;;;;;;50.27;34.67;;;;;;;20.59;100.00;100488.78;4807370;29;21013;-73
2023/06/30 10:17:14;;;;;;;43.87;36.80;;;;;;;20.94;100.00;100488.69;4811473;29;20871;-74
2023/06/30 10:19:44;;;;;;;44.30;34.83;;;;;;;21.10;100.00;100490.28;4811808;29;20415;-73
2023/06/30 10:22:14;;;;;;;38.57;33.93;;;;;;;21.57;98.94;100488.97;4808289;29;20777;-74
2023/06/30 10:24:46;;;;;;;38.17;32.90;;;;;;;21.53;96.96;100487.91;4812440;29;20478;-73
2023/06/30 10:27:19;;;;;;;39.90;33.93;;;;;;;22.13;95.24;100491.34;4808872;29;20448;-75
2023/06/30 10:29:49;;;;;;;34.33;29.63;;;;;;;22.02;92.95;100485.94;4814601;29;20443;-75
2023/06/30 10:32:20;;;;;;;37.53;30.97;;;;;;;21.98;93.40;100495.88;4817083;29;20947;-75
2023/06/30 10:34:58;;;;;;;35.70;28.63;;;;;;;21.71;93.08;100500.16;4817683;29;20453;-74
2023/06/30 10:37:27;;;;;;;31.90;27.90;;;;;;;21.10;92.80;100490.28;4811963;29;20445;-76
2023/06/30 10:39:57;;;;;;;33.60;27.90;;;;;;;20.56;95.86;100494.84;4805596;29;20451;-75
2023/06/30 10:42:29;;;;;;;33.57;27.33;;;;;;;20.29;99.93;100501.44;4810892;29;20440;-73
2023/06/30 10:45:00;;;;;;;32.37;27.00;;;;;;;19.98;100.00;100497.03;4806875;29;20947;-72
2023/06/30 10:47:29;;;;;;;31.37;24.73;;;;;;;19.87;100.00;100498.13;4808175;29;20429;-72
2023/06/30 10:50:13;;;;;;;36.53;29.57;;;;;;;19.83;100.00;100502.53;4810110;29;20443;-73
2023/06/30 10:52:50;;;;;;;31.37;27.20;;;;;;;19.68;100.00;100499.75;4810862;29;20781;-72
2023/06/30 10:55:23;;;;;;;34.03;27.97;;;;;;;19.69;100.00;100493.16;4811063;29;20499;-72
2023/06/30 10:57:55;;;;;;;34.20;27.70;;;;;;;19.61;100.00;100490.94;4804644;29;20488;-74
2023/06/30 11:00:31;;;;;;;32.60;27.43;;;;;;;19.60;100.00;100492.06;4818099;29;20438;-75
2023/06/30 11:03:01;;;;;;;34.33;27.63;;;;;;;19.62;100.00;100482.44;4805684;29;20409;-74
2023/06/30 11:05:32;;;;;;;31.87;27.23;;;;;;;19.51;100.00;100484.34;4821562;29;20470;-74
2023/06/30 11:08:06;;;;;;;35.10;27.50;;;;;;;19.62;100.00;100489.84;4807727;29;20438;-75
2023/06/30 11:10:37;;;;;;;38.90;29.57;;;;;;;19.65;100.00;100489.31;4805913;29;20966;-75
2023/06/30 11:13:10;;;;;;;36.23;28.40;;;;;;;19.57;100.00;100484.34;4808333;29;20414;-73
2023/06/30 11:15:46;;;;;;;33.30;29.60;;;;;;;19.71;100.00;100471.75;4813464;29;20440;-73
2023/06/30 11:18:21;;;;;;;34.57;29.00;;;;;;;20.03;100.00;100477.81;4807332;29;20478;-74
2023/06/30 11:21:01;;;;;;;39.80;30.07;;;;;;;20.24;100.00;100475.88;4809874;29;20980;-72